• Join FlightAware (Why Join?)
  • Login
  • US Flag 
04:42AM EDT


 

Airport Tracker/Info


-or-


 

Live Flight TrackerFlight Track Log ✈ AAR8737 ✈ 02-Aug-2013 ✈ RKSS / GMP - RKJY / RSU

Flight Track Log - Related Links

Times and Time Zones

All times are in EDT time to prevent confusion due to time zone crossing. See the AAR8737 flight status page for this flight to view local times or setup timezone preferences in your user account.

Time Position Orientation Groundspeed Altitude Reporting Facility
EDT Latitude Longitude Course Direction KTS MPH feet Rate Location/Type
04:34AM 37.4980 126.8660 147° Southeast 208 239 4,100  Level FlightAware
04:34AM 37.4940 126.8690 149° Southeast 215 247 4,200 1,920 Climbing FlightAware
04:35AM 37.4730 126.8770 163° South 240 276 4,900 1,860 Climbing FlightAware
04:35AM 37.4490 126.8870 162° South 267 307 5,600 1,680 Climbing FlightAware
04:35AM 37.4220 126.8980 162° South 274 315 6,200 2,280 Climbing FlightAware
04:36AM 37.4020 126.9030 169° South 279 321 7,000 3,420 Climbing FlightAware
04:36AM 37.3750 126.9010 183° South 274 315 8,200 2,880 Climbing FlightAware
04:36AM 37.3500 126.8980 185° South 288 331 8,900 2,220 Climbing FlightAware
04:37AM 37.3210 126.8950 185° South 292 336 9,700 1,020 Climbing FlightAware
04:37AM 37.2740 126.8900 185° South 291 335 10,000 300 Climbing FlightAware
04:38AM 37.2240 126.8840 185° South 291 335 10,100 60 Climbing FlightAware
04:39AM 37.1830 126.8790 186° South 291 335 10,100  Level FlightAware
04:39AM 37.1420 126.8750 184° South 291 335 10,100  Level FlightAware
04:42AM 36.9572 126.9361 165° South  Level Estimated
04:43AM 36.8774 126.9624 165° South  Level Estimated
04:44AM 36.7977 126.9886 165° South  Level Estimated
04:45AM 36.7179 127.0148 165° South  Level Estimated
04:46AM 36.6381 127.0409 165° South  Level Estimated
04:47AM 36.5583 127.0670 165° South  Level Estimated
04:48AM 36.4785 127.0930 165° South  Level Estimated
04:49AM 36.3987 127.1190 165° South  Level Estimated
04:50AM 36.3189 127.1449 165° South  Level Estimated
04:51AM 36.2391 127.1707 165° South  Level Estimated
04:52AM 36.1592 127.1965 165° South  Level Estimated
04:53AM 36.0794 127.2223 165° South  Level Estimated
04:54AM 35.9996 127.2480 165° South  Level Estimated
04:55AM 35.9197 127.2736 165° South  Level Estimated
04:56AM 35.8399 127.2992 165° South  Level Estimated
04:57AM 35.7600 127.3247 165° South  Level Estimated
04:58AM 35.6802 127.3502 165° South  Level Estimated
04:59AM 35.6003 127.3757 165° South  Level Estimated
05:00AM 35.5205 127.4011 165° South  Level Estimated
05:01AM 35.4406 127.4264 166° South  Level Estimated
05:02AM 35.3607 127.4517 166° South  Level Estimated
05:03AM 35.2808 127.4769 166° South  Level Estimated
05:04AM 35.2009 127.5021 166° South  Level Estimated
05:05AM 35.1210 127.5273 166° South  Level Estimated
05:06AM 35.0411 127.5523 166° South  Level Estimated
05:07AM 34.9612 127.5774 166° South  Level Estimated
05:08AM 34.8813 127.6024 166° South  Level Estimated
05:09AM 34.8398 127.6153 166° South  Level Estimated
05:10AM 34.8398 127.6153 180° South  Level Estimated
05:11AM 34.8398 127.6153 180° South  Level Estimated
05:12AM 34.8398 127.6153 180° South  Level Estimated
05:13AM 34.8398 127.6153 180° South  Level Estimated
05:14AM 34.8398 127.6153 180° South  Level Estimated
05:15AM 34.8398 127.6153 180° South  Level Estimated
05:16AM 34.8398 127.6153 180° South  Level Estimated
05:17AM 34.8398 127.6153 180° South  Level Estimated
05:18AM 34.8398 127.6153 180° South  Level Estimated
05:19AM 34.8398 127.6153 180° South  Level Estimated
05:20AM 34.8398 127.6153 180° South  Level Estimated